createdAt,value
2022-09-28T00:01:14.742Z,99520.63
2022-09-28T00:03:42.849Z,99521.47
2022-09-28T00:06:13.360Z,99519.78
2022-09-28T00:08:41.662Z,99521.25
2022-09-28T00:11:13.755Z,99516.19
2022-09-28T00:13:42.926Z,99513.03
2022-09-28T00:16:15.725Z,99510.34
2022-09-28T00:18:45.636Z,99513.72
2022-09-28T00:21:17.255Z,99513.72
2022-09-28T00:23:59.761Z,99518.53
2022-09-28T00:26:30.893Z,99518.94
2022-09-28T00:29:01.031Z,99508.25
2022-09-28T00:31:33.538Z,99512.41
2022-09-28T00:34:05.335Z,99504.88
2022-09-28T00:36:35.000Z,99506.97
2022-09-28T00:39:06.275Z,99508.44
2022-09-28T00:41:35.297Z,99510.75
2022-09-28T00:44:36.133Z,99509.75
2022-09-28T00:47:14.797Z,99503.66
2022-09-28T00:49:48.909Z,99504.25
2022-09-28T00:52:20.771Z,99509.53
2022-09-28T00:54:50.027Z,99504.88
2022-09-28T00:57:18.167Z,99496.28
2022-09-28T00:59:46.256Z,99499.41
2022-09-28T01:02:16.049Z,99497.94
2022-09-28T01:04:44.178Z,99496.25
2022-09-28T01:07:13.572Z,99492.72
2022-09-28T01:09:41.914Z,99485.97
2022-09-28T01:12:10.120Z,99485.50
2022-09-28T01:14:38.854Z,99481.09
2022-09-28T01:17:12.337Z,99478.63
2022-09-28T01:20:13.470Z,99476.53
2022-09-28T01:23:32.232Z,99478.41
2022-09-28T01:26:33.430Z,99480.91
2022-09-28T01:29:07.194Z,99476.47
2022-09-28T01:31:38.563Z,99477.06
2022-09-28T01:34:14.260Z,99477.28
2022-09-28T01:36:46.977Z,99476.44
2022-09-28T01:39:21.195Z,99476.22
2022-09-28T01:41:53.516Z,99476.44
2022-09-28T01:44:24.175Z,99479.13
2022-09-28T01:46:54.854Z,99472.91
2022-09-28T01:49:31.358Z,99476.88
2022-09-28T01:52:06.953Z,99481.66
2022-09-28T01:54:41.858Z,99480.88
2022-09-28T01:57:17.244Z,99486.53
2022-09-28T01:59:51.732Z,99485.09
2022-09-28T02:02:26.466Z,99484.00
2022-09-28T02:04:59.048Z,99487.00
2022-09-28T02:07:34.140Z,99484.66
2022-09-28T02:10:09.626Z,99484.66
2022-09-28T02:12:42.829Z,99485.09
2022-09-28T02:15:15.945Z,99482.56
2022-09-28T02:17:46.217Z,99482.78
2022-09-28T02:20:17.626Z,99479.84
2022-09-28T02:22:49.652Z,99476.94
2022-09-28T02:25:25.299Z,99473.78
2022-09-28T02:28:01.247Z,99477.53
2022-09-28T02:30:32.677Z,99474.63
2022-09-28T02:33:05.500Z,99476.66
2022-09-28T02:35:35.404Z,99481.25
2022-09-28T02:38:05.325Z,99473.94
2022-09-28T02:40:38.229Z,99481.25
2022-09-28T02:43:17.265Z,99476.47
2022-09-28T02:46:06.819Z,99478.13
2022-09-28T02:49:30.395Z,99477.66
2022-09-28T02:52:20.333Z,99482.72
2022-09-28T02:55:04.815Z,99476.59
2022-09-28T02:57:48.195Z,99476.41
2022-09-28T03:00:20.908Z,99469.50
2022-09-28T03:03:04.058Z,99460.69
2022-09-28T03:05:41.691Z,99467.38
2022-09-28T03:08:19.227Z,99469.88
2022-09-28T03:10:52.935Z,99467.56
2022-09-28T03:13:21.502Z,99469.09
2022-09-28T03:15:50.823Z,99465.28
2022-09-28T03:18:19.483Z,99467.78
2022-09-28T03:20:49.674Z,99470.94
2022-09-28T03:23:24.704Z,99474.13
2022-09-28T03:25:53.674Z,99469.28
2022-09-28T03:28:22.050Z,99480.59
2022-09-28T03:30:51.725Z,99476.00
2022-09-28T03:33:20.311Z,99480.41
2022-09-28T03:35:49.547Z,99473.69
2022-09-28T03:38:18.286Z,99478.47
2022-09-28T03:40:53.946Z,99477.44
2022-09-28T03:43:22.132Z,99473.88
2022-09-28T03:45:55.875Z,99481.59
2022-09-28T03:48:29.893Z,99484.56
2022-09-28T03:51:01.636Z,99481.09
2022-09-28T03:53:30.661Z,99488.66
2022-09-28T03:56:05.206Z,99488.16
2022-09-28T03:58:34.879Z,99484.34
2022-09-28T04:01:07.246Z,99478.13
2022-09-28T04:03:35.514Z,99475.09
2022-09-28T04:06:04.034Z,99478.97
2022-09-28T04:08:32.635Z,99476.72
2022-09-28T04:11:01.392Z,99473.22
2022-09-28T04:13:32.415Z,99470.72
2022-09-28T04:16:03.030Z,99479.09
2022-09-28T04:18:36.320Z,99476.78
2022-09-28T04:21:38.215Z,99475.47
2022-09-28T04:24:11.814Z,99471.66
2022-09-28T04:26:40.114Z,99476.97
2022-09-28T04:29:18.645Z,99475.91
2022-09-28T04:31:55.923Z,99475.72
2022-09-28T04:34:51.933Z,99477.47
2022-09-28T04:37:20.393Z,99482.25
2022-09-28T04:39:48.757Z,99482.25
2022-09-28T04:42:19.662Z,99487.69
2022-09-28T04:44:49.952Z,99485.38
2022-09-28T04:47:18.208Z,99487.63
2022-09-28T04:50:12.757Z,99484.56
2022-09-28T04:53:03.124Z,99485.00
2022-09-28T04:55:32.742Z,99498.44
2022-09-28T04:58:03.305Z,99489.13
2022-09-28T05:00:34.717Z,99492.84
2022-09-28T05:03:19.356Z,99497.13
2022-09-28T05:06:18.268Z,99499.72
2022-09-28T05:08:48.316Z,99493.84
2022-09-28T05:11:17.482Z,99498.03
2022-09-28T05:13:47.157Z,99509.25
2022-09-28T05:16:17.823Z,99509.56
2022-09-28T05:19:06.327Z,99503.28
2022-09-28T05:21:35.958Z,99505.09
2022-09-28T05:24:07.734Z,99504.31
2022-09-28T05:26:38.023Z,99504.72
2022-09-28T05:29:07.741Z,99495.31
2022-09-28T05:32:11.148Z,99498.75
2022-09-28T05:34:50.696Z,99495.84
2022-09-28T05:37:26.822Z,99501.97
2022-09-28T05:39:54.841Z,99494.16
2022-09-28T05:42:23.169Z,99491.53
2022-09-28T05:44:51.341Z,99496.78
2022-09-28T05:47:19.318Z,99495.19
2022-09-28T05:49:47.398Z,99500.44
2022-09-28T05:52:15.377Z,99498.75
2022-09-28T05:54:44.788Z,99498.28
2022-09-28T05:57:13.372Z,99491.03
2022-09-28T05:59:41.561Z,99492.47
2022-09-28T06:02:12.109Z,99495.63
2022-09-28T06:04:40.284Z,99493.56
2022-09-28T06:07:09.078Z,99495.41
2022-09-28T06:09:37.514Z,99503.16
2022-09-28T06:12:12.895Z,99502.13
2022-09-28T06:14:46.738Z,99506.84
2022-09-28T06:17:15.182Z,99501.97
2022-09-28T06:19:46.468Z,99505.66
2022-09-28T06:22:31.476Z,99506.50
2022-09-28T06:25:08.090Z,99506.06
2022-09-28T06:27:37.860Z,99506.25
2022-09-28T06:30:07.424Z,99514.81
2022-09-28T06:32:35.736Z,99511.97
2022-09-28T06:35:05.548Z,99512.03
2022-09-28T06:37:34.177Z,99517.53
2022-09-28T06:40:05.106Z,99520.63
2022-09-28T06:42:33.638Z,99527.00
2022-09-28T06:45:27.166Z,99526.09
2022-09-28T06:48:23.935Z,99527.72
2022-09-28T06:50:52.996Z,99536.44
2022-09-28T06:53:30.514Z,99532.88
2022-09-28T06:56:03.892Z,99533.53
2022-09-28T06:58:32.299Z,99537.50
2022-09-28T07:01:03.876Z,99532.63
2022-09-28T07:03:41.708Z,99533.28
2022-09-28T07:06:26.712Z,99526.50
2022-09-28T07:09:26.533Z,99532.75
2022-09-28T07:12:13.562Z,99541.09
2022-09-28T07:14:56.215Z,99533.94
2022-09-28T07:17:26.832Z,99538.47
2022-09-28T07:20:00.966Z,99543.19
2022-09-28T07:22:42.885Z,99538.72
2022-09-28T07:25:15.380Z,99541.00
2022-09-28T07:27:43.308Z,99552.25
2022-09-28T07:30:34.488Z,99545.06
2022-09-28T07:33:42.469Z,99542.75
2022-09-28T07:36:22.895Z,99549.09
2022-09-28T07:38:52.590Z,99552.28
2022-09-28T07:41:32.170Z,99550.81
2022-09-28T07:44:05.998Z,99556.53
2022-09-28T07:46:36.942Z,99549.41
2022-09-28T07:49:26.746Z,99550.97
2022-09-28T07:52:32.006Z,99557.22
2022-09-28T07:55:26.030Z,99560.72
2022-09-28T07:58:24.053Z,99568.25
2022-09-28T08:01:07.738Z,99562.50
2022-09-28T08:03:45.186Z,99560.56
2022-09-28T08:06:17.205Z,99568.50
2022-09-28T08:08:46.083Z,99569.88
2022-09-28T08:11:19.377Z,99570.72
2022-09-28T08:14:19.528Z,99571.50
2022-09-28T08:17:01.163Z,99581.34
2022-09-28T08:20:03.876Z,99575.72
2022-09-28T08:22:34.940Z,99582.50
2022-09-28T08:25:04.044Z,99588.41
2022-09-28T08:27:32.189Z,99585.91
2022-09-28T08:30:00.244Z,99592.16
2022-09-28T08:33:07.569Z,99598.72
2022-09-28T08:35:44.740Z,99602.03
2022-09-28T08:38:32.752Z,99597.47
2022-09-28T08:41:34.040Z,99597.94
2022-09-28T08:44:24.162Z,99598.41
2022-09-28T08:47:54.692Z,99598.84
2022-09-28T08:50:34.328Z,99605.84
2022-09-28T08:53:38.110Z,99607.91
2022-09-28T08:56:26.966Z,99609.88
2022-09-28T08:59:01.070Z,99608.84
2022-09-28T09:01:36.566Z,99607.28
2022-09-28T09:04:10.165Z,99611.69
2022-09-28T09:07:40.146Z,99611.72
2022-09-28T09:10:30.174Z,99613.66
2022-09-28T09:13:07.724Z,99611.81
2022-09-28T09:15:47.224Z,99615.81
2022-09-28T09:18:37.209Z,99613.16
2022-09-28T09:21:39.908Z,99609.19
2022-09-28T09:24:25.086Z,99617.63
2022-09-28T09:27:07.071Z,99624.78
2022-09-28T09:29:52.581Z,99627.53
2022-09-28T09:32:35.758Z,99622.50
2022-09-28T09:35:28.071Z,99615.34
2022-09-28T09:38:24.594Z,99608.88
2022-09-28T09:41:37.461Z,99625.69
2022-09-28T09:44:40.851Z,99622.97
2022-09-28T09:47:32.278Z,99626.97
2022-09-28T09:50:13.588Z,99631.16
2022-09-28T09:52:49.199Z,99628.66
2022-09-28T09:55:29.931Z,99623.19
2022-09-28T09:58:22.736Z,99632.84
2022-09-28T10:01:15.776Z,99632.22
2022-09-28T10:04:20.378Z,99631.16
2022-09-28T10:06:51.671Z,99633.47
2022-09-28T10:09:25.435Z,99631.78
2022-09-28T10:11:54.514Z,99633.06
2022-09-28T10:14:24.779Z,99639.16
2022-09-28T10:17:05.597Z,99636.44
2022-09-28T10:19:56.956Z,99646.72
2022-09-28T10:22:28.576Z,99649.88
2022-09-28T10:25:00.838Z,99643.59
2022-09-28T10:27:32.976Z,99643.34
2022-09-28T10:30:05.672Z,99641.06
2022-09-28T10:32:40.945Z,99642.94
2022-09-28T10:35:15.586Z,99636.84
2022-09-28T10:37:50.314Z,99638.72
2022-09-28T10:40:44.518Z,99639.34
2022-09-28T10:43:24.972Z,99649.25
2022-09-28T10:46:06.982Z,99647.53
2022-09-28T10:48:50.060Z,99641.28
2022-09-28T10:51:18.938Z,99643.16
2022-09-28T10:54:01.347Z,99636.84
2022-09-28T10:56:44.692Z,99642.91
2022-09-28T10:59:32.453Z,99643.75
2022-09-28T11:02:24.494Z,99643.56
2022-09-28T11:04:58.953Z,99644.16
2022-09-28T11:07:33.052Z,99644.56
2022-09-28T11:10:04.409Z,99642.69
2022-09-28T11:12:43.186Z,99643.53
2022-09-28T11:15:19.266Z,99644.34
2022-09-28T11:17:48.888Z,99653.81
2022-09-28T11:20:44.249Z,99649.78
2022-09-28T11:23:20.651Z,99650.22
2022-09-28T11:25:59.716Z,99651.91
2022-09-28T11:28:32.883Z,99647.03
2022-09-28T11:31:04.610Z,99647.44
2022-09-28T11:33:38.942Z,99652.91
2022-09-28T11:36:49.922Z,99653.13
2022-09-28T11:39:29.843Z,99648.72
2022-09-28T11:42:17.132Z,99647.66
2022-09-28T11:44:49.162Z,99648.31
2022-09-28T11:47:44.521Z,99655.44
2022-09-28T11:50:24.284Z,99660.47
2022-09-28T11:53:03.171Z,99652.06
2022-09-28T11:55:37.157Z,99662.81
2022-09-28T11:58:12.858Z,99667.25
2022-09-28T12:00:47.452Z,99664.09
2022-09-28T12:03:19.747Z,99663.50
2022-09-28T12:05:52.939Z,99659.72
2022-09-28T12:08:27.548Z,99667.72
2022-09-28T12:11:26.471Z,99676.53
2022-09-28T12:14:21.341Z,99671.91
2022-09-28T12:17:07.111Z,99669.81
2022-09-28T12:19:43.504Z,99668.94
2022-09-28T12:22:18.301Z,99662.59
2022-09-28T12:24:51.106Z,99662.19
2022-09-28T12:27:28.019Z,99674.34
2022-09-28T12:30:05.305Z,99667.81
2022-09-28T12:32:39.220Z,99668.00
2022-09-28T12:35:14.353Z,99674.53
2022-09-28T12:38:08.923Z,99670.50
2022-09-28T12:40:48.462Z,99669.06
2022-09-28T12:43:40.620Z,99671.78
2022-09-28T12:46:28.836Z,99669.88
2022-09-28T12:52:29.139Z,99669.66
2022-09-28T12:55:18.480Z,99664.84
2022-09-28T12:58:04.892Z,99665.28
2022-09-28T13:00:45.932Z,99661.28
2022-09-28T13:03:42.581Z,99673.50
2022-09-28T13:06:35.246Z,99667.63
2022-09-28T13:09:22.376Z,99673.75
2022-09-28T13:12:16.729Z,99666.38
2022-09-28T13:15:19.249Z,99671.66
2022-09-28T13:18:02.736Z,99669.81
2022-09-28T13:20:52.419Z,99667.44
2022-09-28T13:23:23.616Z,99664.84
2022-09-28T13:25:56.196Z,99660.72
2022-09-28T13:28:28.314Z,99656.97
2022-09-28T13:31:01.792Z,99652.50
2022-09-28T13:33:42.068Z,99656.88
2022-09-28T13:36:38.628Z,99647.06
2022-09-28T13:39:52.086Z,99645.31
2022-09-28T13:42:52.612Z,99643.34
2022-09-28T13:45:54.191Z,99642.78
2022-09-28T13:48:35.601Z,99650.00
2022-09-28T13:51:24.777Z,99648.81
2022-09-28T13:54:11.906Z,99649.78
2022-09-28T13:56:50.638Z,99656.06
2022-09-28T13:59:24.465Z,99650.31
2022-09-28T14:01:58.552Z,99650.44
2022-09-28T14:04:57.212Z,99649.03
2022-09-28T14:10:19.087Z,99661.06
2022-09-28T14:12:49.868Z,99663.50
2022-09-28T14:15:41.289Z,99656.81
2022-09-28T14:18:27.918Z,99660.31
2022-09-28T14:21:17.560Z,99660.03
2022-09-28T14:24:09.700Z,99658.22
2022-09-28T14:26:58.494Z,99651.78
2022-09-28T14:29:29.319Z,99667.13
2022-09-28T14:31:59.190Z,99664.03
2022-09-28T14:34:34.551Z,99670.78
2022-09-28T14:37:24.292Z,99671.34
2022-09-28T14:40:10.147Z,99673.31
2022-09-28T14:42:38.666Z,99672.22
2022-09-28T14:45:36.349Z,99676.84
2022-09-28T14:48:20.484Z,99677.84
2022-09-28T14:50:50.418Z,99669.44
2022-09-28T14:53:23.885Z,99674.88
2022-09-28T14:55:52.643Z,99677.66
2022-09-28T14:58:23.909Z,99687.25
2022-09-28T15:01:06.515Z,99685.50
2022-09-28T15:03:36.554Z,99688.72
2022-09-28T15:06:05.061Z,99679.25
2022-09-28T15:08:41.216Z,99684.41
2022-09-28T15:11:16.653Z,99686.81
2022-09-28T15:13:44.770Z,99680.19
2022-09-28T15:16:15.341Z,99689.91
2022-09-28T15:19:04.867Z,99689.06
2022-09-28T15:21:36.454Z,99689.69
2022-09-28T15:24:25.862Z,99697.22
2022-09-28T15:26:54.233Z,99692.66
2022-09-28T15:29:23.916Z,99697.78
2022-09-28T15:31:54.475Z,99702.19
2022-09-28T15:34:48.275Z,99704.19
2022-09-28T15:37:20.161Z,99710.06
2022-09-28T15:39:51.054Z,99707.28
2022-09-28T15:42:20.434Z,99713.13
2022-09-28T15:45:08.676Z,99704.25
2022-09-28T15:47:38.767Z,99706.13
2022-09-28T15:50:09.665Z,99713.84
2022-09-28T15:52:40.676Z,99712.50
2022-09-28T15:55:22.343Z,99714.03
2022-09-28T15:58:07.597Z,99704.56
2022-09-28T16:00:36.859Z,99718.63
2022-09-28T16:03:21.940Z,99715.94
2022-09-28T16:05:52.470Z,99725.78
2022-09-28T16:08:25.676Z,99727.34
2022-09-28T16:10:59.125Z,99731.56
2022-09-28T16:13:27.943Z,99734.50
2022-09-28T16:16:00.026Z,99734.31
2022-09-28T16:18:30.513Z,99740.72
2022-09-28T16:21:32.292Z,99738.13
2022-09-28T16:24:00.255Z,99737.31
2022-09-28T16:26:33.446Z,99742.16
2022-09-28T16:29:06.983Z,99740.50
2022-09-28T16:31:35.044Z,99738.88
2022-09-28T16:34:17.944Z,99741.50
2022-09-28T16:36:47.746Z,99736.16
2022-09-28T16:39:17.419Z,99746.59
2022-09-28T16:41:49.536Z,99744.84
2022-09-28T16:44:24.477Z,99740.09
2022-09-28T16:46:55.122Z,99745.66
2022-09-28T16:49:25.473Z,99742.69
2022-09-28T16:51:53.750Z,99745.44
2022-09-28T16:54:40.896Z,99736.63
2022-09-28T16:57:12.713Z,99746.31
2022-09-28T16:59:40.875Z,99747.16
2022-09-28T17:02:45.105Z,99744.66
2022-09-28T17:05:10.236Z,99741.47
2022-09-28T17:07:38.260Z,99746.31
2022-09-28T17:10:16.795Z,99747.56
2022-09-28T17:12:46.808Z,99750.06
2022-09-28T17:15:15.825Z,99755.34
2022-09-28T17:17:43.779Z,99754.31
2022-09-28T17:20:21.456Z,99757.25
2022-09-28T17:22:49.948Z,99757.44
2022-09-28T17:25:18.436Z,99757.03
2022-09-28T17:27:49.757Z,99754.53
2022-09-28T17:30:22.326Z,99764.44
2022-09-28T17:32:53.754Z,99769.09
2022-09-28T17:35:24.655Z,99773.94
2022-09-28T17:37:53.565Z,99775.41
2022-09-28T17:40:23.869Z,99767.44
2022-09-28T17:42:55.225Z,99780.94
2022-09-28T17:45:24.240Z,99781.34
2022-09-28T17:47:52.440Z,99776.72
2022-09-28T17:50:23.990Z,99778.22
2022-09-28T17:52:55.949Z,99781.19
2022-09-28T17:55:28.556Z,99778.88
2022-09-28T17:57:58.199Z,99784.13
2022-09-28T18:00:28.059Z,99785.00
2022-09-28T18:02:57.128Z,99782.50
2022-09-28T18:05:27.824Z,99782.91
2022-09-28T18:07:58.738Z,99780.81
2022-09-28T18:10:27.532Z,99783.56
2022-09-28T18:12:56.940Z,99783.34
2022-09-28T18:15:25.164Z,99783.13
2022-09-28T18:17:53.489Z,99785.06
2022-09-28T18:20:21.724Z,99782.53
2022-09-28T18:22:50.019Z,99786.97
2022-09-28T18:25:18.208Z,99788.84
2022-09-28T18:27:46.290Z,99786.34
2022-09-28T18:30:15.900Z,99792.69
2022-09-28T18:32:43.923Z,99796.50
2022-09-28T18:35:12.126Z,99802.16
2022-09-28T18:37:43.597Z,99799.44
2022-09-28T18:40:13.878Z,99801.13
2022-09-28T18:42:42.659Z,99804.28
2022-09-28T18:45:11.970Z,99807.22
2022-09-28T18:47:42.936Z,99811.03
2022-09-28T18:50:12.968Z,99812.50
2022-09-28T18:52:41.247Z,99816.69
2022-09-28T18:55:10.317Z,99812.94
2022-09-28T18:57:40.493Z,99811.84
2022-09-28T19:00:11.511Z,99817.56
2022-09-28T19:02:41.331Z,99812.06
2022-09-28T19:05:09.849Z,99819.25
2022-09-28T19:07:37.910Z,99820.06
2022-09-28T19:10:06.919Z,99826.19
2022-09-28T19:12:34.847Z,99826.81
2022-09-28T19:15:02.744Z,99834.81
2022-09-28T19:17:30.966Z,99832.28
2022-09-28T19:20:00.486Z,99834.84
2022-09-28T19:22:28.936Z,99833.78
2022-09-28T19:24:57.075Z,99835.28
2022-09-28T19:27:25.842Z,99834.63
2022-09-28T19:29:53.763Z,99839.06
2022-09-28T19:32:21.867Z,99832.94
2022-09-28T19:34:50.005Z,99831.69
2022-09-28T19:37:19.339Z,99835.47
2022-09-28T19:39:47.196Z,99836.50
2022-09-28T19:42:15.238Z,99844.94
2022-09-28T19:44:43.924Z,99847.03
2022-09-28T19:47:13.041Z,99836.31
2022-09-28T19:49:41.650Z,99845.38
2022-09-28T19:52:15.865Z,99844.31
2022-09-28T19:54:54.410Z,99851.28
2022-09-28T19:57:24.644Z,99847.47
2022-09-28T19:59:57.832Z,99860.72
2022-09-28T20:02:29.736Z,99853.34
2022-09-28T20:04:58.174Z,99852.94
2022-09-28T20:07:26.587Z,99855.06
2022-09-28T20:09:55.916Z,99854.81
2022-09-28T20:12:24.262Z,99853.78
2022-09-28T20:14:52.352Z,99858.22
2022-09-28T20:17:21.984Z,99852.31
2022-09-28T20:19:51.683Z,99856.28
2022-09-28T20:22:20.065Z,99863.25
2022-09-28T20:24:48.470Z,99866.59
2022-09-28T20:27:18.145Z,99865.56
2022-09-28T20:29:46.447Z,99862.19
2022-09-28T20:32:14.498Z,99863.44
2022-09-28T20:34:42.735Z,99863.25
2022-09-28T20:37:12.488Z,99868.50
2022-09-28T20:39:44.808Z,99866.19
2022-09-28T20:42:15.663Z,99863.84
2022-09-28T20:44:45.176Z,99869.31
2022-09-28T20:47:13.115Z,99864.91
2022-09-28T20:49:41.663Z,99866.78
2022-09-28T20:52:09.778Z,99867.16
2022-09-28T20:54:38.060Z,99868.06
2022-09-28T20:57:17.257Z,99867.19
2022-09-28T20:59:50.867Z,99866.38
2022-09-28T21:02:21.769Z,99866.09
2022-09-28T21:04:49.689Z,99864.88
2022-09-28T21:07:18.335Z,99870.34
2022-09-28T21:09:47.216Z,99870.34
2022-09-28T21:12:21.062Z,99868.44
2022-09-28T21:14:53.917Z,99875.38
2022-09-28T21:17:23.194Z,99871.00
2022-09-28T21:19:52.809Z,99874.97
2022-09-28T21:22:25.681Z,99883.34
2022-09-28T21:24:57.656Z,99882.00
2022-09-28T21:27:39.112Z,99872.81
2022-09-28T21:30:33.392Z,99876.19
2022-09-28T21:33:04.461Z,99878.25
2022-09-28T21:35:38.491Z,99885.59
2022-09-28T21:38:16.992Z,99875.31
2022-09-28T21:40:50.541Z,99883.94
2022-09-28T21:47:43.666Z,99889.22
2022-09-28T21:50:29.026Z,99892.78
2022-09-28T21:53:04.066Z,99893.16
2022-09-28T21:55:37.881Z,99900.31
2022-09-28T22:02:42.468Z,99896.94
2022-09-28T22:05:13.611Z,99905.78
2022-09-28T22:07:44.115Z,99904.50
2022-09-28T22:10:17.929Z,99903.66
2022-09-28T22:12:48.938Z,99912.28
2022-09-28T22:15:26.686Z,99911.25
2022-09-28T22:18:00.603Z,99917.94
2022-09-28T22:27:58.778Z,99914.94
2022-09-28T22:30:35.288Z,99914.94
2022-09-28T22:33:32.252Z,99923.38
2022-09-28T22:36:08.375Z,99921.38
2022-09-28T22:38:45.730Z,99924.94
2022-09-28T22:41:19.157Z,99924.09
2022-09-28T22:43:48.546Z,99921.94
2022-09-28T22:46:21.274Z,99934.63
2022-09-28T22:48:55.927Z,99931.69
2022-09-28T22:51:32.171Z,99934.81
2022-09-28T22:54:11.793Z,99932.53
2022-09-28T23:01:34.923Z,99937.16
2022-09-28T23:04:10.294Z,99932.72
2022-09-28T23:06:43.539Z,99935.06
2022-09-28T23:09:13.812Z,99928.47
2022-09-28T23:11:43.170Z,99940.91
2022-09-28T23:14:13.764Z,99939.03
2022-09-28T23:21:31.594Z,99941.09
2022-09-28T23:24:02.659Z,99937.72
2022-09-28T23:26:34.503Z,99935.38
2022-09-28T23:29:04.594Z,99940.81
2022-09-28T23:31:35.084Z,99939.09
2022-09-28T23:34:07.255Z,99942.06
2022-09-28T23:36:37.821Z,99943.66
2022-09-28T23:39:08.379Z,99946.19
2022-09-28T23:41:37.871Z,99946.56
2022-09-28T23:44:09.472Z,99947.44
2022-09-28T23:46:40.208Z,99946.97
2022-09-28T23:52:45.940Z,99946.28
2022-09-28T23:55:19.213Z,99944.59
2022-09-28T23:57:50.098Z,99950.69
